createdAt,value
2023-05-03T00:00:44.736Z,46.44
2023-05-03T00:01:44.763Z,47.35
2023-05-03T00:02:45.135Z,49.42
2023-05-03T00:03:44.701Z,47.28
2023-05-03T00:04:44.735Z,48.01
2023-05-03T00:05:44.704Z,47.43
2023-05-03T00:06:44.709Z,45.12
2023-05-03T00:07:44.665Z,45.41
2023-05-03T00:08:44.650Z,44.65
2023-05-03T00:09:44.654Z,44.23
2023-05-03T00:10:44.646Z,44.05
2023-05-03T00:11:44.686Z,44.24
2023-05-03T00:12:44.624Z,44.73
2023-05-03T00:13:44.596Z,44.01
2023-05-03T00:14:44.600Z,44.09
2023-05-03T00:15:44.576Z,43.40
2023-05-03T00:16:44.605Z,43.54
2023-05-03T00:17:44.618Z,42.97
2023-05-03T00:18:44.549Z,42.86
2023-05-03T00:19:44.551Z,43.84
2023-05-03T00:20:44.519Z,44.99
2023-05-03T00:21:44.507Z,45.44
2023-05-03T00:22:44.519Z,47.89
2023-05-03T00:23:44.488Z,45.72
2023-05-03T00:24:44.493Z,48.28
2023-05-03T00:25:44.478Z,45.29
2023-05-03T00:26:44.458Z,45.51
2023-05-03T00:27:44.455Z,46.61
2023-05-03T00:28:44.456Z,47.66
2023-05-03T00:29:44.455Z,46.47
2023-05-03T00:30:44.450Z,45.87
2023-05-03T00:31:44.446Z,45.79
2023-05-03T00:32:44.422Z,47.61
2023-05-03T00:33:44.388Z,48.51
2023-05-03T00:34:44.388Z,47.30
2023-05-03T00:35:44.372Z,47.56
2023-05-03T00:36:44.358Z,45.12
2023-05-03T00:37:44.347Z,46.38
2023-05-03T00:38:44.339Z,44.74
2023-05-03T00:39:44.333Z,45.69
2023-05-03T00:40:44.312Z,45.80
2023-05-03T00:41:44.300Z,45.57
2023-05-03T00:42:44.293Z,47.09
2023-05-03T00:43:44.296Z,46.44
2023-05-03T00:44:44.348Z,45.79
2023-05-03T00:45:44.279Z,46.46
2023-05-03T00:46:44.296Z,47.88
2023-05-03T00:47:44.363Z,48.28
2023-05-03T00:48:44.234Z,47.62
2023-05-03T00:49:44.257Z,46.26
2023-05-03T00:50:44.213Z,45.00
2023-05-03T00:51:44.199Z,44.21
2023-05-03T00:52:44.193Z,44.21
2023-05-03T00:53:44.176Z,43.67
2023-05-03T00:54:44.177Z,43.56
2023-05-03T00:55:44.152Z,43.82
2023-05-03T00:56:51.605Z,42.57
2023-05-03T00:57:45.140Z,42.11
2023-05-03T00:58:44.131Z,43.56
2023-05-03T00:59:44.121Z,43.22
2023-05-03T01:00:44.128Z,43.91
2023-05-03T01:01:44.139Z,46.40
2023-05-03T01:02:44.182Z,46.36
2023-05-03T01:03:44.182Z,44.55
2023-05-03T01:04:44.094Z,45.31
2023-05-03T01:05:44.050Z,44.58
2023-05-03T01:06:44.077Z,43.85
2023-05-03T01:07:44.031Z,43.18
2023-05-03T01:08:44.025Z,43.34
2023-05-03T01:09:44.021Z,43.74
2023-05-03T01:10:44.000Z,44.47
2023-05-03T01:11:43.992Z,43.60
2023-05-03T01:12:43.980Z,43.34
2023-05-03T01:13:43.996Z,43.95
2023-05-03T01:14:43.973Z,43.40
2023-05-03T01:15:43.977Z,42.82
2023-05-03T01:16:44.010Z,43.27
2023-05-03T01:17:43.930Z,44.61
2023-05-03T01:18:43.923Z,44.35
2023-05-03T01:19:43.915Z,44.15
2023-05-03T01:20:43.913Z,47.73
2023-05-03T01:21:43.881Z,48.38
2023-05-03T01:22:43.877Z,45.82
2023-05-03T01:23:43.876Z,44.84
2023-05-03T01:24:43.862Z,44.26
2023-05-03T01:25:43.842Z,46.21
2023-05-03T01:26:43.832Z,44.63
2023-05-03T01:27:43.870Z,43.94
2023-05-03T01:28:43.813Z,43.91
2023-05-03T01:29:43.811Z,46.86
2023-05-03T01:30:43.792Z,47.85
2023-05-03T01:31:43.802Z,48.03
2023-05-03T01:32:43.846Z,47.28
2023-05-03T01:33:43.757Z,47.02
2023-05-03T01:34:44.877Z,46.26
2023-05-03T01:35:44.859Z,47.74
2023-05-03T01:36:44.852Z,46.45
2023-05-03T01:37:44.845Z,44.64
2023-05-03T01:38:44.831Z,46.13
2023-05-03T01:39:44.856Z,47.35
2023-05-03T01:40:44.815Z,45.15
2023-05-03T01:41:44.804Z,46.13
2023-05-03T01:42:44.794Z,45.82
2023-05-03T01:43:44.783Z,45.50
2023-05-03T01:44:44.785Z,47.61
2023-05-03T01:45:44.772Z,49.23
2023-05-03T01:46:44.753Z,47.11
2023-05-03T01:47:44.770Z,49.04
2023-05-03T01:48:44.746Z,46.03
2023-05-03T01:49:44.756Z,45.36
2023-05-03T01:50:44.751Z,45.84
2023-05-03T01:51:44.704Z,46.88
2023-05-03T01:52:44.692Z,48.14
2023-05-03T01:53:44.681Z,44.84
2023-05-03T01:54:44.709Z,44.08
2023-05-03T01:55:44.702Z,44.12
2023-05-03T01:56:44.663Z,43.14
2023-05-03T01:57:44.650Z,43.25
2023-05-03T01:58:44.647Z,43.66
2023-05-03T01:59:44.661Z,44.37
2023-05-03T02:00:44.641Z,47.73
2023-05-03T02:01:44.676Z,44.15
2023-05-03T02:02:44.626Z,45.09
2023-05-03T02:03:45.619Z,44.59
2023-05-03T02:04:44.607Z,44.60
2023-05-03T02:05:44.584Z,44.64
2023-05-03T02:06:44.635Z,45.07
2023-05-03T02:07:44.553Z,44.92
2023-05-03T02:08:44.543Z,44.08
2023-05-03T02:09:44.538Z,45.06
2023-05-03T02:10:44.516Z,43.92
2023-05-03T02:11:44.514Z,44.79
2023-05-03T02:12:44.503Z,45.29
2023-05-03T02:13:44.492Z,45.17
2023-05-03T02:14:44.488Z,44.86
2023-05-03T02:15:44.470Z,45.57
2023-05-03T02:16:44.507Z,45.71
2023-05-03T02:17:44.475Z,45.21
2023-05-03T02:18:44.443Z,46.27
2023-05-03T02:19:44.456Z,46.52
2023-05-03T02:20:44.433Z,45.83
2023-05-03T02:21:44.408Z,45.38
2023-05-03T02:22:44.398Z,43.86
2023-05-03T02:23:44.402Z,43.16
2023-05-03T02:24:44.409Z,44.32
2023-05-03T02:25:44.382Z,44.70
2023-05-03T02:26:44.378Z,44.84
2023-05-03T02:27:44.354Z,44.31
2023-05-03T02:28:44.346Z,44.97
2023-05-03T02:29:44.348Z,45.53
2023-05-03T02:30:44.375Z,45.91
2023-05-03T02:31:44.318Z,46.29
2023-05-03T02:32:44.351Z,46.20
2023-05-03T02:33:44.295Z,49.48
2023-05-03T02:34:44.299Z,48.36
2023-05-03T02:35:44.287Z,50.41
2023-05-03T02:36:44.263Z,49.80
2023-05-03T02:37:44.259Z,48.24
2023-05-03T02:38:44.255Z,48.53
2023-05-03T02:39:44.253Z,48.47
2023-05-03T02:40:44.248Z,47.23
2023-05-03T02:41:44.229Z,47.67
2023-05-03T02:42:44.218Z,48.10
2023-05-03T02:43:44.195Z,48.15
2023-05-03T02:44:44.217Z,48.64
2023-05-03T02:45:44.189Z,49.28
2023-05-03T02:46:44.203Z,48.40
2023-05-03T02:47:44.204Z,48.20
2023-05-03T02:48:44.161Z,49.74
2023-05-03T02:49:44.168Z,49.55
2023-05-03T02:50:44.136Z,50.59
2023-05-03T02:51:44.128Z,51.04
2023-05-03T02:52:44.124Z,50.68
2023-05-03T02:53:44.116Z,51.39
2023-05-03T02:54:44.114Z,50.98
2023-05-03T02:55:44.093Z,53.07
2023-05-03T02:56:44.079Z,53.65
2023-05-03T02:57:44.068Z,51.75
2023-05-03T02:58:44.071Z,52.23
2023-05-03T02:59:44.060Z,54.20
2023-05-03T03:00:44.048Z,52.75
2023-05-03T03:01:44.106Z,52.64
2023-05-03T03:02:44.168Z,51.77
2023-05-03T03:03:44.101Z,52.73
2023-05-03T03:04:44.025Z,51.10
2023-05-03T03:05:43.990Z,56.31
2023-05-03T03:06:44.014Z,55.66
2023-05-03T03:07:44.987Z,55.60
2023-05-03T03:08:43.967Z,57.06
2023-05-03T03:09:43.955Z,53.67
2023-05-03T03:10:43.961Z,53.23
2023-05-03T03:11:43.933Z,53.93
2023-05-03T03:12:43.943Z,52.79
2023-05-03T03:13:43.922Z,54.96
2023-05-03T03:14:43.912Z,54.42
2023-05-03T03:15:43.935Z,54.69
2023-05-03T03:16:43.887Z,56.14
2023-05-03T03:17:43.953Z,55.75
2023-05-03T03:18:43.867Z,54.50
2023-05-03T03:19:43.865Z,53.62
2023-05-03T03:20:43.872Z,54.92
2023-05-03T03:21:43.839Z,52.47
2023-05-03T03:22:43.842Z,52.69
2023-05-03T03:23:43.821Z,53.90
2023-05-03T03:24:43.809Z,57.16
2023-05-03T03:25:43.795Z,53.37
2023-05-03T03:26:43.789Z,56.00
2023-05-03T03:27:43.787Z,51.81
2023-05-03T03:28:43.774Z,51.44
2023-05-03T03:29:43.761Z,57.32
2023-05-03T03:30:43.773Z,53.89
2023-05-03T03:31:43.791Z,50.98
2023-05-03T03:32:43.832Z,51.99
2023-05-03T03:33:43.717Z,55.47
2023-05-03T03:34:43.742Z,54.59
2023-05-03T03:35:43.704Z,53.01
2023-05-03T03:36:43.699Z,56.51
2023-05-03T03:37:43.690Z,50.95
2023-05-03T03:38:43.682Z,52.95
2023-05-03T03:39:43.663Z,55.11
2023-05-03T03:40:43.669Z,53.21
2023-05-03T03:41:43.644Z,52.25
2023-05-03T03:42:43.643Z,55.57
2023-05-03T03:43:43.622Z,51.71
2023-05-03T03:44:43.650Z,53.29
2023-05-03T03:45:43.607Z,54.70
2023-05-03T03:46:43.679Z,54.78
2023-05-03T03:47:43.612Z,53.91
2023-05-03T03:48:43.575Z,52.10
2023-05-03T03:49:43.591Z,55.06
2023-05-03T03:50:43.563Z,51.35
2023-05-03T03:51:43.556Z,49.93
2023-05-03T03:52:43.549Z,50.28
2023-05-03T03:53:43.551Z,49.79
2023-05-03T03:54:43.537Z,51.86
2023-05-03T03:55:43.514Z,50.40
2023-05-03T03:56:43.538Z,52.44
2023-05-03T03:57:43.496Z,51.15
2023-05-03T03:58:43.500Z,49.70
2023-05-03T03:59:43.496Z,55.05
2023-05-03T04:00:43.478Z,47.96
2023-05-03T04:01:43.494Z,50.66
2023-05-03T04:02:43.529Z,48.65
2023-05-03T04:03:43.553Z,52.13
2023-05-03T04:04:43.445Z,50.68
2023-05-03T04:05:43.418Z,56.36
2023-05-03T04:06:43.464Z,51.21
2023-05-03T04:07:43.424Z,58.19
2023-05-03T04:08:43.417Z,54.39
2023-05-03T04:09:43.411Z,54.46
2023-05-03T04:10:43.382Z,54.81
2023-05-03T04:11:43.369Z,51.92
2023-05-03T04:12:43.352Z,53.03
2023-05-03T04:13:43.362Z,54.35
2023-05-03T04:14:43.345Z,51.55
2023-05-03T04:15:43.344Z,55.25
2023-05-03T04:16:43.368Z,56.84
2023-05-03T04:17:43.360Z,55.16
2023-05-03T04:18:43.299Z,57.97
2023-05-03T04:19:43.281Z,53.69
2023-05-03T04:20:43.301Z,56.60
2023-05-03T04:21:43.271Z,56.86
2023-05-03T04:22:43.260Z,53.44
2023-05-03T04:23:43.241Z,58.26
2023-05-03T04:24:43.231Z,54.91
2023-05-03T04:25:43.241Z,57.25
2023-05-03T04:26:43.213Z,55.70
2023-05-03T04:27:43.216Z,53.37
2023-05-03T04:28:43.207Z,56.62
2023-05-03T04:29:43.197Z,55.74
2023-05-03T04:30:43.248Z,53.39
2023-05-03T04:31:43.169Z,53.63
2023-05-03T04:32:43.217Z,56.89
2023-05-03T04:33:43.147Z,54.40
2023-05-03T04:34:43.138Z,53.09
2023-05-03T04:35:43.142Z,55.48
2023-05-03T04:36:43.112Z,55.94
2023-05-03T04:37:43.108Z,59.49
2023-05-03T04:38:43.116Z,66.02
2023-05-03T04:39:43.092Z,59.62
2023-05-03T04:40:43.095Z,54.25
2023-05-03T04:41:43.086Z,56.12
2023-05-03T04:42:43.069Z,52.84
2023-05-03T04:43:43.070Z,54.32
2023-05-03T04:44:43.055Z,54.58
2023-05-03T04:45:43.031Z,53.72
2023-05-03T04:46:43.054Z,54.42
2023-05-03T04:47:43.077Z,51.15
2023-05-03T04:48:43.004Z,57.33
2023-05-03T04:49:42.983Z,56.64
2023-05-03T04:50:42.990Z,55.53
2023-05-03T04:51:42.983Z,52.55
2023-05-03T04:52:42.967Z,52.49
2023-05-03T04:53:42.956Z,52.09
2023-05-03T04:54:42.951Z,55.27
2023-05-03T04:55:42.961Z,53.62
2023-05-03T04:56:43.002Z,56.73
2023-05-03T04:57:42.930Z,55.49
2023-05-03T04:58:42.914Z,56.15
2023-05-03T04:59:42.891Z,52.87
2023-05-03T05:00:42.877Z,55.52
2023-05-03T05:01:42.981Z,60.26
2023-05-03T05:02:42.889Z,54.56
2023-05-03T05:03:42.965Z,55.37
2023-05-03T05:04:42.840Z,56.75
2023-05-03T05:05:42.832Z,56.82
2023-05-03T05:06:42.829Z,54.75
2023-05-03T05:07:42.887Z,55.23
2023-05-03T05:08:42.791Z,55.75
2023-05-03T05:09:42.786Z,55.39
2023-05-03T05:10:42.789Z,55.96
2023-05-03T05:11:42.762Z,55.30
2023-05-03T05:12:42.751Z,59.50
2023-05-03T05:13:42.750Z,55.28
2023-05-03T05:14:42.742Z,57.84
2023-05-03T05:15:42.729Z,57.27
2023-05-03T05:16:42.774Z,55.21
2023-05-03T05:17:42.784Z,59.12
2023-05-03T05:18:42.684Z,56.54
2023-05-03T05:19:42.690Z,54.78
2023-05-03T05:20:42.673Z,54.05
2023-05-03T05:21:42.674Z,55.29
2023-05-03T05:22:42.642Z,57.01
2023-05-03T05:23:42.728Z,57.38
2023-05-03T05:24:42.631Z,57.50
2023-05-03T05:25:42.633Z,60.39
2023-05-03T05:26:42.626Z,53.27
2023-05-03T05:27:42.607Z,57.71
2023-05-03T05:28:42.597Z,56.43
2023-05-03T05:29:42.598Z,58.18
2023-05-03T05:30:42.572Z,56.09
2023-05-03T05:31:42.602Z,56.75
2023-05-03T05:32:42.601Z,57.38
2023-05-03T05:33:42.532Z,58.17
2023-05-03T05:34:45.557Z,54.02
2023-05-03T05:35:43.528Z,56.76
2023-05-03T05:36:42.536Z,52.76
2023-05-03T05:37:42.491Z,53.74
2023-05-03T05:38:42.491Z,57.19
2023-05-03T05:39:42.556Z,57.19
2023-05-03T05:40:42.485Z,58.48
2023-05-03T05:41:42.545Z,57.40
2023-05-03T05:42:42.478Z,55.80
2023-05-03T05:43:42.455Z,56.28
2023-05-03T05:44:42.452Z,56.79
2023-05-03T05:45:42.476Z,59.23
2023-05-03T05:46:42.496Z,57.55
2023-05-03T05:47:42.453Z,56.89
2023-05-03T05:48:42.419Z,56.60
2023-05-03T05:49:42.403Z,58.31
2023-05-03T05:50:42.380Z,58.69
2023-05-03T05:51:42.409Z,57.84
2023-05-03T05:52:42.380Z,59.91
2023-05-03T05:53:42.356Z,58.22
2023-05-03T05:54:42.347Z,54.73
2023-05-03T05:55:42.352Z,55.92
2023-05-03T05:56:42.332Z,55.69
2023-05-03T05:57:42.344Z,58.23
2023-05-03T05:58:42.322Z,55.63
2023-05-03T05:59:42.318Z,54.84
2023-05-03T06:00:42.283Z,53.92
2023-05-03T06:01:42.294Z,52.62
2023-05-03T06:02:42.417Z,53.98
2023-05-03T06:03:42.249Z,55.05
2023-05-03T06:04:42.292Z,54.46
2023-05-03T06:05:42.551Z,54.84
2023-05-03T06:06:42.251Z,52.53
2023-05-03T06:07:42.195Z,54.52
2023-05-03T06:08:42.186Z,53.09
2023-05-03T06:09:42.208Z,51.83
2023-05-03T06:10:42.288Z,51.97
2023-05-03T06:11:42.173Z,52.70
2023-05-03T06:12:42.161Z,53.25
2023-05-03T06:13:42.157Z,50.74
2023-05-03T06:14:48.963Z,51.49
2023-05-03T06:15:44.207Z,54.21
2023-05-03T06:16:42.187Z,51.81
2023-05-03T06:17:42.245Z,52.39
2023-05-03T06:18:42.201Z,48.92
2023-05-03T06:19:44.412Z,51.19
2023-05-03T06:20:42.148Z,53.40
2023-05-03T06:21:42.112Z,54.27
2023-05-03T06:22:42.125Z,50.53
2023-05-03T06:23:42.083Z,50.26
2023-05-03T06:24:42.116Z,49.45
2023-05-03T06:25:42.078Z,56.71
2023-05-03T06:26:42.098Z,55.31
2023-05-03T06:27:42.075Z,51.00
2023-05-03T06:28:42.062Z,54.24
2023-05-03T06:29:42.029Z,53.21
2023-05-03T06:30:42.144Z,52.28
2023-05-03T06:31:42.101Z,51.15
2023-05-03T06:32:42.061Z,50.21
2023-05-03T06:33:42.022Z,52.04
2023-05-03T06:34:41.991Z,52.38
2023-05-03T06:35:41.955Z,52.99
2023-05-03T06:36:41.997Z,53.23
2023-05-03T06:37:41.919Z,54.94
2023-05-03T06:38:41.924Z,53.07
2023-05-03T06:39:41.943Z,54.89
2023-05-03T06:40:41.949Z,54.74
2023-05-03T06:41:41.914Z,53.12
2023-05-03T06:42:41.845Z,53.26
2023-05-03T06:43:41.949Z,52.73
2023-05-03T06:44:41.829Z,52.75
2023-05-03T06:45:41.828Z,53.29
2023-05-03T06:46:41.846Z,53.38
2023-05-03T06:47:41.838Z,54.34
2023-05-03T06:48:41.842Z,52.74
2023-05-03T06:49:41.768Z,59.00
2023-05-03T06:50:41.763Z,53.01
2023-05-03T06:51:41.773Z,53.85
2023-05-03T06:52:41.735Z,54.69
2023-05-03T06:53:41.731Z,51.94
2023-05-03T06:54:41.741Z,55.29
2023-05-03T06:55:41.720Z,53.47
2023-05-03T06:56:41.711Z,53.00
2023-05-03T06:57:41.749Z,50.61
2023-05-03T06:58:41.703Z,51.65
2023-05-03T06:59:42.620Z,54.79
2023-05-03T07:00:41.686Z,52.70
2023-05-03T07:01:41.757Z,51.84
2023-05-03T07:02:41.780Z,50.54
2023-05-03T07:03:42.097Z,51.59
2023-05-03T07:04:42.652Z,48.01
2023-05-03T07:05:41.670Z,46.22
2023-05-03T07:06:55.394Z,49.52
2023-05-03T07:07:43.628Z,47.39
2023-05-03T07:08:41.626Z,49.20
2023-05-03T07:09:43.501Z,44.75
2023-05-03T07:10:42.591Z,49.78
2023-05-03T07:11:41.604Z,46.52
2023-05-03T07:12:41.618Z,45.31
2023-05-03T07:13:41.573Z,50.60
2023-05-03T07:14:41.590Z,53.93
2023-05-03T07:15:41.632Z,51.31
2023-05-03T07:16:41.571Z,49.80
2023-05-03T07:17:41.586Z,47.90
2023-05-03T07:18:42.563Z,51.46
2023-05-03T07:19:41.530Z,56.77
2023-05-03T07:20:41.517Z,51.48
2023-05-03T07:21:41.495Z,54.41
2023-05-03T07:22:41.509Z,55.01
2023-05-03T07:23:41.489Z,44.40
2023-05-03T07:24:41.484Z,47.03
2023-05-03T07:25:41.450Z,44.66
2023-05-03T07:26:43.642Z,42.06
2023-05-03T07:27:41.463Z,47.22
2023-05-03T07:28:41.454Z,46.86
2023-05-03T07:29:41.530Z,49.33
2023-05-03T07:30:41.390Z,48.72
2023-05-03T07:31:41.715Z,47.94
2023-05-03T07:32:41.467Z,49.73
2023-05-03T07:33:41.489Z,50.86
2023-05-03T07:34:41.344Z,52.79
2023-05-03T07:35:41.346Z,50.69
2023-05-03T07:36:41.421Z,49.27
2023-05-03T07:37:41.340Z,48.60
2023-05-03T07:38:41.356Z,46.36
2023-05-03T07:39:41.331Z,45.32
2023-05-03T07:40:41.305Z,47.31
2023-05-03T07:41:41.326Z,45.89
2023-05-03T07:42:41.274Z,41.93
2023-05-03T07:43:41.525Z,47.45
2023-05-03T07:44:41.291Z,43.99
2023-05-03T07:45:41.322Z,49.02
2023-05-03T07:46:41.269Z,45.70
2023-05-03T07:47:41.287Z,45.59
2023-05-03T07:48:42.708Z,43.15
2023-05-03T07:49:41.242Z,45.85
2023-05-03T07:50:41.235Z,48.50
2023-05-03T07:51:41.215Z,55.34
2023-05-03T07:52:41.198Z,51.93
2023-05-03T07:53:41.178Z,45.87
2023-05-03T07:54:41.178Z,48.83
2023-05-03T07:55:41.185Z,53.25
2023-05-03T07:56:41.142Z,49.36
2023-05-03T07:57:41.170Z,48.27
2023-05-03T07:58:42.460Z,50.73
2023-05-03T07:59:42.125Z,50.54
2023-05-03T08:00:41.130Z,47.63
2023-05-03T08:01:41.119Z,48.62
2023-05-03T08:02:41.281Z,50.65
2023-05-03T08:03:41.327Z,50.94
2023-05-03T08:04:41.334Z,50.73
2023-05-03T08:05:41.141Z,44.59
2023-05-03T08:06:41.158Z,47.92
2023-05-03T08:07:41.056Z,53.37
2023-05-03T08:08:41.014Z,48.47
2023-05-03T08:09:41.030Z,48.73
2023-05-03T08:10:41.046Z,46.33
2023-05-03T08:11:43.767Z,49.37
2023-05-03T08:12:41.026Z,51.26
2023-05-03T08:13:40.990Z,46.35
2023-05-03T08:14:40.961Z,46.11
2023-05-03T08:15:41.005Z,46.75
2023-05-03T08:16:41.014Z,52.69
2023-05-03T08:17:40.965Z,48.67
2023-05-03T08:18:40.944Z,45.81
2023-05-03T08:19:41.125Z,49.53
2023-05-03T08:20:40.921Z,46.26
2023-05-03T08:21:40.911Z,50.01
2023-05-03T08:22:40.872Z,45.78
2023-05-03T08:23:40.887Z,54.85
2023-05-03T08:24:40.867Z,53.81
2023-05-03T08:25:40.861Z,48.64
2023-05-03T08:26:41.916Z,48.80
2023-05-03T08:27:40.859Z,46.18
2023-05-03T08:28:40.820Z,45.53
2023-05-03T08:29:40.817Z,46.47
2023-05-03T08:30:40.831Z,50.92
2023-05-03T08:31:40.835Z,49.37
2023-05-03T08:32:41.741Z,46.58
2023-05-03T08:33:40.804Z,49.89
2023-05-03T08:34:40.797Z,47.19
2023-05-03T08:35:40.808Z,52.34
2023-05-03T08:36:40.770Z,45.58
2023-05-03T08:37:40.837Z,43.89
2023-05-03T08:38:40.781Z,46.65
2023-05-03T08:39:40.708Z,44.17
2023-05-03T08:40:40.717Z,46.98
2023-05-03T08:41:40.706Z,45.94
2023-05-03T08:42:40.739Z,46.42
2023-05-03T08:43:40.714Z,50.15
2023-05-03T08:44:40.670Z,51.00
2023-05-03T08:45:40.711Z,49.84
2023-05-03T08:46:40.695Z,48.71
2023-05-03T08:47:40.680Z,52.34
2023-05-03T08:48:40.616Z,47.46
2023-05-03T08:49:40.661Z,55.46
2023-05-03T08:50:40.616Z,53.44
2023-05-03T08:51:40.629Z,50.11
2023-05-03T08:52:40.730Z,51.10
2023-05-03T08:53:40.557Z,52.12
2023-05-03T08:54:40.555Z,50.98
2023-05-03T08:55:40.584Z,50.01
2023-05-03T08:56:40.563Z,51.42
2023-05-03T08:57:40.624Z,46.41
2023-05-03T08:58:40.557Z,55.40
2023-05-03T08:59:40.533Z,46.61
2023-05-03T09:00:40.508Z,44.20
2023-05-03T09:01:40.593Z,49.94
2023-05-03T09:02:40.624Z,54.82
2023-05-03T09:03:40.554Z,48.43
2023-05-03T09:04:40.474Z,46.86
2023-05-03T09:05:40.477Z,49.40
2023-05-03T09:06:40.486Z,50.43
2023-05-03T09:07:40.448Z,45.75
2023-05-03T09:08:40.393Z,43.52
2023-05-03T09:09:40.445Z,47.62
2023-05-03T09:10:40.459Z,44.74
2023-05-03T09:11:40.424Z,45.39
2023-05-03T09:12:40.461Z,47.61
2023-05-03T09:13:40.385Z,45.98
2023-05-03T09:14:40.514Z,45.61
2023-05-03T09:15:40.386Z,47.39
2023-05-03T09:16:40.410Z,47.11
2023-05-03T09:17:40.396Z,44.73
2023-05-03T09:18:40.323Z,55.52
2023-05-03T09:19:40.344Z,53.20
2023-05-03T09:20:40.367Z,52.17
2023-05-03T09:21:40.305Z,46.01
2023-05-03T09:22:40.290Z,50.32
2023-05-03T09:23:40.379Z,45.64
2023-05-03T09:24:40.301Z,48.01
2023-05-03T09:25:40.249Z,52.04
2023-05-03T09:26:40.361Z,48.91
2023-05-03T09:27:40.250Z,50.27
2023-05-03T09:28:41.243Z,49.20
2023-05-03T09:29:40.221Z,46.58
2023-05-03T09:30:40.246Z,47.60
2023-05-03T09:31:40.240Z,49.13
2023-05-03T09:32:40.208Z,48.58
2023-05-03T09:33:40.195Z,45.65
2023-05-03T09:34:40.225Z,49.78
2023-05-03T09:35:40.158Z,47.00
2023-05-03T09:36:40.184Z,45.41
2023-05-03T09:37:40.171Z,43.39
2023-05-03T09:38:40.146Z,44.68
2023-05-03T09:39:40.166Z,47.10
2023-05-03T09:40:40.138Z,43.64
2023-05-03T09:41:40.102Z,48.59
2023-05-03T09:42:40.110Z,48.47
2023-05-03T09:43:40.092Z,43.42
2023-05-03T09:44:40.097Z,45.63
2023-05-03T09:45:40.097Z,47.15
2023-05-03T09:46:40.048Z,47.64
2023-05-03T09:47:40.132Z,47.15
2023-05-03T09:48:40.038Z,43.51
2023-05-03T09:49:40.069Z,46.00
2023-05-03T09:50:40.074Z,49.36
2023-05-03T09:51:40.031Z,47.32
2023-05-03T09:52:39.983Z,49.14
2023-05-03T09:53:39.990Z,54.26
2023-05-03T09:54:39.959Z,53.27
2023-05-03T09:55:39.983Z,44.90
2023-05-03T09:56:39.981Z,50.15
2023-05-03T09:57:39.930Z,49.15
2023-05-03T09:58:39.981Z,48.63
2023-05-03T09:59:40.057Z,44.23
2023-05-03T10:00:39.901Z,45.59
2023-05-03T10:01:39.982Z,50.93
2023-05-03T10:02:40.023Z,43.79
2023-05-03T10:03:39.958Z,49.06
2023-05-03T10:04:39.914Z,45.44
2023-05-03T10:05:39.858Z,46.19
2023-05-03T10:06:39.909Z,48.32
2023-05-03T10:07:39.855Z,46.52
2023-05-03T10:08:39.843Z,49.62
2023-05-03T10:09:39.817Z,49.11
2023-05-03T10:10:39.824Z,44.53
2023-05-03T10:11:39.775Z,52.20
2023-05-03T10:12:39.820Z,49.76
2023-05-03T10:13:39.764Z,41.93
2023-05-03T10:14:39.800Z,45.23
2023-05-03T10:15:39.837Z,50.28
2023-05-03T10:16:39.793Z,42.66
2023-05-03T10:18:40.742Z,44.70
2023-05-03T10:19:39.830Z,41.81
2023-05-03T10:20:39.731Z,45.32
2023-05-03T10:21:39.673Z,49.14
2023-05-03T10:22:39.713Z,47.65
2023-05-03T10:23:39.680Z,48.00
2023-05-03T10:24:39.679Z,47.81
2023-05-03T10:25:39.649Z,41.75
2023-05-03T10:26:39.634Z,41.73
2023-05-03T10:27:39.654Z,48.91
2023-05-03T10:28:39.649Z,50.47
2023-05-03T10:29:39.607Z,48.55
2023-05-03T10:30:39.591Z,47.83
2023-05-03T10:31:39.631Z,50.25
2023-05-03T10:32:39.649Z,45.38
2023-05-03T10:33:39.550Z,50.22
2023-05-03T10:34:39.527Z,44.67
2023-05-03T10:35:39.538Z,46.82
2023-05-03T10:36:48.948Z,47.33
2023-05-03T10:37:41.557Z,43.07
2023-05-03T10:38:45.611Z,46.08
2023-05-03T10:39:40.516Z,45.27
2023-05-03T10:40:39.496Z,50.02
2023-05-03T10:41:39.452Z,46.04
2023-05-03T10:42:39.458Z,47.09
2023-05-03T10:43:39.437Z,47.43
2023-05-03T10:44:39.448Z,49.21
2023-05-03T10:45:39.422Z,40.80
2023-05-03T10:46:39.446Z,44.07
2023-05-03T10:47:39.429Z,47.72
2023-05-03T10:48:39.428Z,43.91
2023-05-03T10:49:39.367Z,42.83
2023-05-03T10:50:39.442Z,47.10
2023-05-03T10:51:39.402Z,46.72
2023-05-03T10:52:39.417Z,48.63
2023-05-03T10:53:39.399Z,45.66
2023-05-03T10:54:39.356Z,43.91
2023-05-03T10:55:39.343Z,45.92
2023-05-03T10:56:39.349Z,42.32
2023-05-03T10:57:40.337Z,47.15
2023-05-03T10:58:40.361Z,41.19
2023-05-03T10:59:39.395Z,45.79
2023-05-03T11:00:39.330Z,49.71
2023-05-03T11:01:39.337Z,48.28
2023-05-03T11:02:39.320Z,45.67
2023-05-03T11:03:39.277Z,43.71
2023-05-03T11:04:39.308Z,46.24
2023-05-03T11:05:41.019Z,48.30
2023-05-03T11:06:39.259Z,46.57
2023-05-03T11:07:39.199Z,43.19
2023-05-03T11:08:39.192Z,48.75
2023-05-03T11:09:39.226Z,47.21
2023-05-03T11:10:39.185Z,49.96
2023-05-03T11:11:39.143Z,41.78
2023-05-03T11:12:39.154Z,47.97
2023-05-03T11:13:39.230Z,45.76
2023-05-03T11:14:39.140Z,45.12
2023-05-03T11:15:39.130Z,47.72
2023-05-03T11:16:39.177Z,46.50
2023-05-03T11:17:39.156Z,46.62
2023-05-03T11:18:39.129Z,43.65
2023-05-03T11:19:39.049Z,46.11
2023-05-03T11:20:40.057Z,46.62
2023-05-03T11:21:39.040Z,50.08
2023-05-03T11:22:39.073Z,45.04
2023-05-03T11:23:39.105Z,47.73
2023-05-03T11:24:39.029Z,48.32
2023-05-03T11:25:39.016Z,43.47
2023-05-03T11:26:39.016Z,43.30
2023-05-03T11:27:39.054Z,51.36
2023-05-03T11:28:38.992Z,46.92
2023-05-03T11:29:39.039Z,46.26
2023-05-03T11:30:38.993Z,43.60
2023-05-03T11:31:39.080Z,44.43
2023-05-03T11:32:39.065Z,59.93
2023-05-03T11:33:39.062Z,48.34
2023-05-03T11:34:38.965Z,46.70
2023-05-03T11:35:38.955Z,44.24
2023-05-03T11:36:38.946Z,43.16
2023-05-03T11:37:38.914Z,47.39
2023-05-03T11:38:39.011Z,59.45
2023-05-03T11:39:38.939Z,50.02
2023-05-03T11:40:38.909Z,43.77
2023-05-03T11:41:38.932Z,39.96
2023-05-03T11:42:38.878Z,49.64
2023-05-03T11:43:38.874Z,41.52
2023-05-03T11:44:38.872Z,41.68
2023-05-03T11:45:38.915Z,42.99
2023-05-03T11:46:39.049Z,44.09
2023-05-03T11:47:38.959Z,50.04
2023-05-03T11:48:38.939Z,43.70
2023-05-03T11:49:38.775Z,40.30
2023-05-03T11:50:38.785Z,43.47
2023-05-03T11:51:38.778Z,43.36
2023-05-03T11:52:38.765Z,42.74
2023-05-03T11:53:38.770Z,49.60
2023-05-03T11:54:38.773Z,47.94
2023-05-03T11:55:38.717Z,41.48
2023-05-03T11:56:38.743Z,45.22
2023-05-03T11:57:38.723Z,44.62
2023-05-03T11:58:38.727Z,45.61
2023-05-03T11:59:38.720Z,46.27
2023-05-03T12:00:38.684Z,41.00
2023-05-03T12:01:38.811Z,43.90
2023-05-03T12:02:38.780Z,44.69
2023-05-03T12:03:38.785Z,44.76
2023-05-03T12:04:39.141Z,43.70
2023-05-03T12:05:39.387Z,51.33
2023-05-03T12:06:39.909Z,51.77
2023-05-03T12:07:38.803Z,50.40
2023-05-03T12:08:41.519Z,48.25
2023-05-03T12:09:40.356Z,46.90
2023-05-03T12:10:38.828Z,42.36
2023-05-03T12:11:39.834Z,46.08
2023-05-03T12:12:43.543Z,45.78
2023-05-03T12:13:41.198Z,47.95
2023-05-03T12:14:39.239Z,43.00
2023-05-03T12:15:40.610Z,45.32
2023-05-03T12:19:04.793Z,45.87
2023-05-03T12:20:42.012Z,48.35
2023-05-03T12:21:30.888Z,43.94
2023-05-03T12:22:24.069Z,46.31
2023-05-03T12:23:05.829Z,47.57
2023-05-03T12:24:06.049Z,49.35
2023-05-03T12:25:04.904Z,45.39
2023-05-03T12:26:05.490Z,43.36
2023-05-03T12:27:04.528Z,43.61
2023-05-03T12:28:17.867Z,43.25
2023-05-03T12:29:06.695Z,45.05
2023-05-03T12:30:04.959Z,50.36
2023-05-03T12:31:05.380Z,46.82
2023-05-03T12:32:05.172Z,46.41
2023-05-03T12:33:05.268Z,47.69
2023-05-03T12:34:30.986Z,42.05
2023-05-03T12:35:08.174Z,46.04
2023-05-03T12:36:04.612Z,44.12
2023-05-03T12:37:05.749Z,50.37
2023-05-03T12:38:04.697Z,46.69
2023-05-03T12:39:05.777Z,43.47
2023-05-03T12:41:05.590Z,46.90
2023-05-03T12:42:06.751Z,47.11
2023-05-03T12:43:04.581Z,44.19
2023-05-03T12:44:04.412Z,49.58
2023-05-03T12:45:05.008Z,48.89
2023-05-03T12:47:09.560Z,45.34
2023-05-03T12:48:04.337Z,45.27
2023-05-03T12:50:06.311Z,53.15
2023-05-03T12:51:18.529Z,45.95
2023-05-03T12:52:35.234Z,44.81
2023-05-03T12:53:08.896Z,48.55
2023-05-03T12:54:04.330Z,47.96
2023-05-03T12:55:04.564Z,45.86
2023-05-03T12:56:06.617Z,42.73
2023-05-03T12:57:07.941Z,43.71
2023-05-03T12:59:35.587Z,48.47
2023-05-03T13:00:05.386Z,42.49